Time;durP1;ratioP1;P1;durP2;ratioP2;P2;SDS_P1;SDS_P2;PMS_P1;PMS_P2;Temp;Humidity;BMP_temperature;BMP_pressure;BME280_temperature;BME280_humidity;BME280_pressure;Samples;Min_cycle;Max_cycle;Signal;HPM_P1;HPM_P2
2020/12/14 00:02:04;;;;;;;10.20;5.78;;;6.20;99.90;;;;;;5066720;28;20033;-76
2020/12/14 00:04:30;;;;;;;11.70;5.65;;;6.20;99.90;;;;;;5066657;28;20079;-74
2020/12/14 00:06:55;;;;;;;14.95;5.97;;;6.20;99.90;;;;;;5065871;28;20438;-74
2020/12/14 00:09:23;;;;;;;15.38;6.40;;;6.20;99.90;;;;;;5067192;28;20029;-75
2020/12/14 00:11:49;;;;;;;11.38;5.50;;;6.20;99.90;;;;;;5065729;28;20029;-75
2020/12/14 00:14:15;;;;;;;12.05;5.45;;;6.10;99.90;;;;;;5065707;28;20033;-75
2020/12/14 00:16:41;;;;;;;12.45;5.22;;;6.10;99.90;;;;;;5065687;28;20028;-75
2020/12/14 00:19:07;;;;;;;11.77;5.35;;;6.10;99.90;;;;;;5067225;28;20021;-75
2020/12/14 00:21:32;;;;;;;10.68;5.53;;;6.10;99.90;;;;;;5067124;28;20080;-74
2020/12/14 00:23:58;;;;;;;14.20;5.70;;;6.10;99.90;;;;;;5065484;28;20029;-74
2020/12/14 00:26:23;;;;;;;13.57;6.05;;;6.10;99.90;;;;;;5066701;28;20031;-75
2020/12/14 00:28:49;;;;;;;9.55;4.45;;;6.10;99.90;;;;;;5065668;28;20021;-76
2020/12/14 00:31:18;;;;;;;11.93;4.78;;;6.10;99.90;;;;;;5065465;28;20021;-75
2020/12/14 00:33:44;;;;;;;11.27;5.28;;;6.10;99.90;;;;;;5066718;28;20126;-76
2020/12/14 00:36:11;;;;;;;14.00;4.05;;;6.10;99.90;;;;;;5064932;28;20023;-77
2020/12/14 00:38:37;;;;;;;10.25;4.80;;;6.00;99.90;;;;;;5065432;28;20013;-76
2020/12/14 00:41:04;;;;;;;13.05;4.35;;;6.00;99.90;;;;;;5065276;28;20071;-75
2020/12/14 00:43:29;;;;;;;14.32;5.03;;;5.90;99.90;;;;;;5065332;28;20028;-76
2020/12/14 00:45:55;;;;;;;7.43;4.05;;;5.90;99.90;;;;;;5066300;28;20029;-76
2020/12/14 00:48:20;;;;;;;10.77;5.35;;;5.90;99.90;;;;;;5065066;28;20032;-75
2020/12/14 00:50:46;;;;;;;14.82;5.15;;;5.80;99.90;;;;;;5066420;28;20028;-75
2020/12/14 00:53:12;;;;;;;12.38;4.57;;;5.70;99.90;;;;;;5066374;28;20072;-75
2020/12/14 00:55:38;;;;;;;8.38;3.80;;;5.80;99.90;;;;;;5065009;28;20116;-76
2020/12/14 00:58:04;;;;;;;12.27;5.38;;;5.80;99.90;;;;;;5066149;28;20021;-76
2020/12/14 01:00:30;;;;;;;8.10;3.47;;;5.80;99.90;;;;;;5066139;28;20049;-75
2020/12/14 01:02:55;;;;;;;8.70;4.88;;;5.80;99.90;;;;;;5065806;28;20032;-74
2020/12/14 01:05:21;;;;;;;11.77;5.03;;;5.80;99.90;;;;;;5065904;28;20044;-76
2020/12/14 01:07:46;;;;;;;10.00;4.68;;;5.80;99.90;;;;;;5064896;28;20028;-76
2020/12/14 01:10:12;;;;;;;12.57;5.32;;;5.80;99.90;;;;;;5065730;28;20052;-75
2020/12/14 01:12:37;;;;;;;14.07;4.65;;;5.80;99.90;;;;;;5064816;28;20032;-75
2020/12/14 01:15:05;;;;;;;7.65;4.57;;;5.80;99.90;;;;;;5064533;28;20448;-75
2020/12/14 01:17:31;;;;;;;8.68;4.38;;;5.80;99.90;;;;;;5064677;28;20059;-76
2020/12/14 01:19:56;;;;;;;5.03;3.50;;;5.90;99.90;;;;;;5065719;28;20013;-75
2020/12/14 01:22:22;;;;;;;6.68;3.72;;;5.90;99.90;;;;;;5064510;28;20021;-75
2020/12/14 01:24:47;;;;;;;10.20;3.65;;;6.00;99.90;;;;;;5064547;28;20024;-76
2020/12/14 01:27:13;;;;;;;11.45;4.65;;;6.10;99.90;;;;;;5065890;28;20036;-74
2020/12/14 01:29:38;;;;;;;14.32;4.72;;;5.90;99.90;;;;;;5065459;28;20021;-76
2020/12/14 01:32:04;;;;;;;6.80;3.55;;;6.00;99.90;;;;;;5064465;28;20421;-75
2020/12/14 01:34:29;;;;;;;6.85;3.78;;;6.00;99.90;;;;;;5065327;28;20083;-74
2020/12/14 01:36:55;;;;;;;7.85;3.65;;;6.00;99.90;;;;;;5064342;28;20052;-74
2020/12/14 01:39:20;;;;;;;15.38;3.50;;;6.00;99.90;;;;;;5065388;28;20021;-75
2020/12/14 01:41:46;;;;;;;6.10;3.78;;;5.90;99.90;;;;;;5065467;28;20025;-75
2020/12/14 01:44:12;;;;;;;6.35;3.15;;;5.90;99.90;;;;;;5065155;28;20043;-75
2020/12/14 01:46:44;;;;;;;7.53;3.88;;;6.00;99.90;;;;;;5065247;28;20047;-76
2020/12/14 01:49:10;;;;;;;7.28;3.35;;;6.10;99.90;;;;;;5065394;28;20086;-76
2020/12/14 01:51:36;;;;;;;6.97;3.53;;;6.00;99.90;;;;;;5064681;28;20024;-75
2020/12/14 01:54:23;;;;;;;10.88;2.83;;;6.00;99.90;;;;;;5065246;28;20032;-74
2020/12/14 01:56:49;;;;;;;3.92;2.45;;;6.10;99.90;;;;;;5063614;28;20029;-77
2020/12/14 01:59:14;;;;;;;4.82;2.67;;;6.10;99.90;;;;;;5064947;28;20025;-76
2020/12/14 02:01:40;;;;;;;5.75;3.22;;;6.00;99.90;;;;;;5065149;28;20108;-75
2020/12/14 02:04:06;;;;;;;6.72;3.25;;;6.10;99.90;;;;;;5064728;28;20481;-77
2020/12/14 02:06:31;;;;;;;5.15;2.92;;;6.00;99.90;;;;;;5063835;28;20024;-75
2020/12/14 02:08:57;;;;;;;6.57;2.88;;;6.00;99.90;;;;;;5064882;28;20046;-74
2020/12/14 02:11:22;;;;;;;8.65;3.40;;;6.00;99.90;;;;;;5064708;28;20066;-75
2020/12/14 02:13:48;;;;;;;4.63;3.10;;;6.10;99.90;;;;;;5063579;28;20385;-75
2020/12/14 02:16:14;;;;;;;5.43;3.22;;;6.10;99.90;;;;;;5064657;28;20039;-75
2020/12/14 02:18:39;;;;;;;3.17;1.95;;;6.00;99.90;;;;;;5063707;28;20029;-75
2020/12/14 02:21:05;;;;;;;8.57;3.63;;;6.00;99.90;;;;;;5064597;28;20025;-77
2020/12/14 02:23:31;;;;;;;5.75;3.25;;;6.00;99.90;;;;;;5064798;28;20021;-74
2020/12/14 02:25:56;;;;;;;7.20;3.08;;;5.90;99.90;;;;;;5063332;28;20025;-76
2020/12/14 02:28:22;;;;;;;4.13;2.50;;;6.00;99.90;;;;;;5063133;28;20017;-74
2020/12/14 02:30:48;;;;;;;6.28;3.45;;;6.00;99.90;;;;;;5064394;28;20035;-75
2020/12/14 02:33:13;;;;;;;6.55;3.17;;;5.90;99.90;;;;;;5063407;28;20025;-75
2020/12/14 02:35:39;;;;;;;6.60;3.13;;;6.00;99.90;;;;;;5064585;28;20021;-76
2020/12/14 02:38:06;;;;;;;5.63;2.92;;;6.00;99.90;;;;;;5064744;28;20017;-76
2020/12/14 02:40:32;;;;;;;8.63;3.00;;;5.90;99.90;;;;;;5064950;28;20421;-77
2020/12/14 02:42:58;;;;;;;6.47;3.25;;;6.00;99.90;;;;;;5064437;28;20021;-76
2020/12/14 02:45:24;;;;;;;5.78;2.88;;;6.00;99.90;;;;;;5062959;28;20017;-76
2020/12/14 02:47:49;;;;;;;5.97;2.13;;;6.00;99.90;;;;;;5063268;28;20065;-76
2020/12/14 02:50:15;;;;;;;6.65;3.33;;;6.00;99.90;;;;;;5064379;28;20025;-75
2020/12/14 02:52:41;;;;;;;5.93;3.05;;;6.00;99.90;;;;;;5065642;28;20021;-74
2020/12/14 02:55:07;;;;;;;5.13;1.90;;;6.00;99.90;;;;;;5068348;28;20047;-76
2020/12/14 02:57:32;;;;;;;4.43;2.88;;;5.90;99.90;;;;;;5067281;28;20025;-75
2020/12/14 02:59:58;;;;;;;4.53;2.40;;;6.00;99.90;;;;;;5067100;28;20029;-77
2020/12/14 03:02:24;;;;;;;4.70;2.53;;;6.00;99.90;;;;;;5067146;28;20017;-75
2020/12/14 03:04:49;;;;;;;5.70;2.45;;;6.00;99.90;;;;;;5067994;28;20041;-75
2020/12/14 03:07:15;;;;;;;6.00;2.85;;;6.00;99.90;;;;;;5068275;28;20024;-73
2020/12/14 03:09:40;;;;;;;5.32;2.40;;;6.00;99.90;;;;;;5066958;28;20025;-77
2020/12/14 03:12:06;;;;;;;6.10;3.13;;;5.90;99.90;;;;;;5068327;28;20021;-76
2020/12/14 03:14:32;;;;;;;7.30;3.03;;;6.00;99.90;;;;;;5067938;28;20128;-75
2020/12/14 03:16:57;;;;;;;7.03;2.67;;;5.90;99.90;;;;;;5066739;28;20120;-74
2020/12/14 03:19:23;;;;;;;4.07;2.40;;;6.00;99.90;;;;;;5066826;28;20032;-76
2020/12/14 03:21:49;;;;;;;6.05;1.98;;;5.90;99.90;;;;;;5066628;28;20029;-75
2020/12/14 03:24:14;;;;;;;4.65;2.30;;;6.00;99.90;;;;;;5067901;28;20020;-76
2020/12/14 03:26:40;;;;;;;6.75;3.13;;;6.00;99.90;;;;;;5067918;28;20032;-75
2020/12/14 03:29:07;;;;;;;6.03;2.40;;;6.00;99.90;;;;;;5068114;28;20108;-77
2020/12/14 03:31:33;;;;;;;5.63;2.75;;;6.10;99.90;;;;;;5066756;28;21063;-77
2020/12/14 03:33:59;;;;;;;7.10;3.03;;;6.10;99.90;;;;;;5066391;28;20041;-75
2020/12/14 03:36:25;;;;;;;9.73;2.28;;;6.00;99.90;;;;;;5067673;28;20040;-76
2020/12/14 03:38:52;;;;;;;4.00;2.45;;;6.20;99.90;;;;;;5066128;28;20029;-75
2020/12/14 03:41:18;;;;;;;3.65;2.15;;;6.00;99.90;;;;;;5066192;28;20175;-77
2020/12/14 03:43:44;;;;;;;4.97;2.42;;;6.10;99.90;;;;;;5066373;28;20025;-75
2020/12/14 03:46:15;;;;;;;5.13;2.33;;;6.10;99.90;;;;;;5067434;28;20028;-74
2020/12/14 03:48:40;;;;;;;4.05;1.92;;;6.20;99.90;;;;;;5066089;28;20024;-76
2020/12/14 03:51:12;;;;;;;3.65;2.03;;;6.10;99.90;;;;;;5067521;28;20021;-75
2020/12/14 03:53:37;;;;;;;7.85;2.35;;;6.10;99.90;;;;;;5066021;28;20095;-76
2020/12/14 03:56:04;;;;;;;4.47;1.98;;;6.10;99.90;;;;;;5066451;28;20373;-74
2020/12/14 03:58:29;;;;;;;4.43;2.00;;;6.20;99.90;;;;;;5065760;28;20024;-75
2020/12/14 04:00:55;;;;;;;7.43;2.50;;;6.20;99.90;;;;;;5067290;28;20028;-75
2020/12/14 04:03:23;;;;;;;3.70;2.05;;;6.10;99.90;;;;;;5066800;28;20032;-75
2020/12/14 04:05:48;;;;;;;5.15;2.97;;;6.20;99.90;;;;;;5067274;28;20029;-74
2020/12/14 04:08:14;;;;;;;4.32;2.35;;;6.20;99.90;;;;;;5067034;28;20023;-75
2020/12/14 04:10:39;;;;;;;3.05;2.10;;;6.10;99.90;;;;;;5065778;28;20488;-76
2020/12/14 04:13:05;;;;;;;3.17;2.35;;;6.20;99.90;;;;;;5066909;28;20021;-75
2020/12/14 04:15:30;;;;;;;4.03;2.35;;;6.20;99.90;;;;;;5065670;28;20048;-75
2020/12/14 04:17:56;;;;;;;4.30;2.55;;;6.10;99.90;;;;;;5066960;28;20032;-74
2020/12/14 04:20:22;;;;;;;5.68;2.25;;;6.10;99.90;;;;;;5066864;28;20024;-75
2020/12/14 04:22:48;;;;;;;3.40;2.00;;;6.10;99.90;;;;;;5066925;28;20456;-74
2020/12/14 04:25:16;;;;;;;3.58;2.33;;;6.10;99.90;;;;;;5066633;28;20032;-76
2020/12/14 04:27:42;;;;;;;5.55;2.08;;;6.10;99.90;;;;;;5066542;28;20029;-76
2020/12/14 04:30:08;;;;;;;2.80;1.88;;;6.20;99.90;;;;;;5066350;28;20021;-76
2020/12/14 04:32:33;;;;;;;3.35;1.98;;;6.10;99.90;;;;;;5065694;28;20027;-74
2020/12/14 04:34:59;;;;;;;5.40;2.15;;;6.20;99.90;;;;;;5065138;28;20044;-75
2020/12/14 04:37:24;;;;;;;3.22;1.55;;;6.10;99.90;;;;;;5066210;28;20373;-75
2020/12/14 04:39:50;;;;;;;2.58;1.45;;;6.10;99.90;;;;;;5066651;28;20032;-75
2020/12/14 04:42:16;;;;;;;3.20;1.80;;;6.10;99.90;;;;;;5066301;28;20021;-76
2020/12/14 04:44:43;;;;;;;2.13;1.40;;;6.10;99.90;;;;;;5065112;28;20080;-76
2020/12/14 04:47:12;;;;;;;10.48;2.00;;;6.30;99.90;;;;;;5065058;28;20024;-76
2020/12/14 04:49:41;;;;;;;3.28;2.03;;;6.20;99.90;;;;;;5066371;28;20029;-74
2020/12/14 04:52:07;;;;;;;1.95;1.60;;;6.20;99.90;;;;;;5066350;28;20024;-76
2020/12/14 04:54:34;;;;;;;4.25;1.60;;;6.20;99.90;;;;;;5066535;28;20044;-75
2020/12/14 04:57:08;;;;;;;8.52;1.52;;;6.20;99.90;;;;;;5064868;28;20024;-74
2020/12/14 04:59:34;;;;;;;4.78;1.00;;;6.20;99.90;;;;;;5066192;28;20021;-75
2020/12/14 05:02:05;;;;;;;3.92;2.17;;;6.20;99.90;;;;;;5066108;28;20049;-75
2020/12/14 05:04:31;;;;;;;3.47;1.52;;;6.10;99.90;;;;;;5064633;28;20059;-75
2020/12/14 05:06:56;;;;;;;2.65;1.67;;;6.30;99.90;;;;;;5064822;28;20021;-75
2020/12/14 05:09:22;;;;;;;1.67;1.17;;;6.20;99.90;;;;;;5064701;28;20017;-76
2020/12/14 05:11:48;;;;;;;2.22;1.30;;;6.20;99.90;;;;;;5065831;28;20032;-75
2020/12/14 05:14:22;;;;;;;2.03;1.40;;;6.20;99.90;;;;;;5065394;28;20111;-75
2020/12/14 05:16:48;;;;;;;2.50;1.50;;;6.20;99.90;;;;;;5065886;28;20024;-75
2020/12/14 05:19:24;;;;;;;1.70;1.48;;;6.20;99.90;;;;;;5065832;28;20080;-76
2020/12/14 05:21:54;;;;;;;3.33;1.70;;;6.20;99.90;;;;;;5065726;28;20108;-76
2020/12/14 05:24:29;;;;;;;6.32;2.15;;;6.30;99.90;;;;;;5065511;28;20092;-76
2020/12/14 05:26:58;;;;;;;2.72;1.58;;;6.20;99.90;;;;;;5064581;28;20021;-74
2020/12/14 05:29:29;;;;;;;4.35;1.52;;;6.20;99.90;;;;;;5064257;28;20141;-75
2020/12/14 05:32:03;;;;;;;1.95;1.38;;;6.20;99.90;;;;;;5064406;28;20035;-76
2020/12/14 05:34:35;;;;;;;2.55;1.25;;;6.30;99.90;;;;;;5064121;28;20449;-76
2020/12/14 05:37:03;;;;;;;4.85;1.90;;;6.20;99.90;;;;;;5064034;28;20033;-76
2020/12/14 05:39:29;;;;;;;3.90;1.33;;;6.20;99.90;;;;;;5063854;28;20073;-76
2020/12/14 05:42:16;;;;;;;4.78;1.95;;;6.20;99.90;;;;;;5065387;28;20037;-75
2020/12/14 05:44:47;;;;;;;3.97;1.48;;;6.20;99.90;;;;;;5065068;28;20025;-74
2020/12/14 05:47:31;;;;;;;4.03;1.73;;;6.20;99.90;;;;;;5064079;28;20024;-75
2020/12/14 05:49:59;;;;;;;3.22;1.63;;;6.30;99.90;;;;;;5065301;28;20029;-76
2020/12/14 05:52:32;;;;;;;1.83;1.15;;;6.20;99.90;;;;;;5063940;28;20025;-75
2020/12/14 05:55:00;;;;;;;1.87;0.70;;;6.20;99.90;;;;;;5063755;28;20095;-74
2020/12/14 05:57:36;;;;;;;2.08;1.17;;;6.20;99.90;;;;;;5064910;28;20017;-75
2020/12/14 06:00:05;;;;;;;1.65;1.25;;;6.10;99.90;;;;;;5065246;28;20043;-74
2020/12/14 06:02:31;;;;;;;1.83;1.02;;;6.10;99.90;;;;;;5065188;28;20500;-74
2020/12/14 06:04:58;;;;;;;2.83;1.65;;;6.10;99.90;;;;;;5064587;28;20041;-74
2020/12/14 06:07:26;;;;;;;4.30;2.13;;;6.10;99.90;;;;;;5063405;28;20033;-75
2020/12/14 06:10:08;;;;;;;3.30;1.67;;;6.10;99.90;;;;;;5063520;28;20024;-74
2020/12/14 06:12:36;;;;;;;3.13;1.65;;;6.20;99.90;;;;;;5064948;28;20057;-75
2020/12/14 06:15:06;;;;;;;1.98;1.08;;;6.10;99.90;;;;;;5063471;28;20366;-75
2020/12/14 06:17:33;;;;;;;2.00;1.23;;;6.10;99.90;;;;;;5065010;28;20025;-75
2020/12/14 06:20:21;;;;;;;2.80;1.58;;;6.10;99.90;;;;;;5062211;28;20019;-75
2020/12/14 06:22:58;;;;;;;3.40;2.00;;;6.10;99.90;;;;;;5051503;28;20021;-76
2020/12/14 06:25:24;;;;;;;4.65;1.50;;;6.10;99.90;;;;;;5048877;28;20017;-74
2020/12/14 06:27:50;;;;;;;5.50;1.38;;;6.20;99.90;;;;;;5043832;28;20021;-74
2020/12/14 06:30:35;;;;;;;2.75;1.65;;;6.10;99.90;;;;;;5043307;28;20037;-74
2020/12/14 06:33:01;;;;;;;3.15;2.17;;;6.10;99.90;;;;;;5044660;28;20454;-74
2020/12/14 06:35:49;;;;;;;2.85;1.92;;;6.10;99.90;;;;;;5044656;28;20044;-75
2020/12/14 06:38:37;;;;;;;3.13;1.65;;;6.10;99.90;;;;;;5044413;28;20029;-76
2020/12/14 06:41:24;;;;;;;2.97;1.92;;;6.00;99.90;;;;;;5044637;28;20040;-75
2020/12/14 06:44:12;;;;;;;2.53;1.40;;;6.00;99.90;;;;;;5044376;28;20037;-74
2020/12/14 06:46:38;;;;;;;3.85;1.85;;;6.10;99.90;;;;;;5044615;28;20021;-74
2020/12/14 06:49:09;;;;;;;2.00;1.33;;;6.10;99.90;;;;;;5044833;28;20091;-75
2020/12/14 06:51:51;;;;;;;6.22;2.13;;;6.10;99.90;;;;;;5043376;28;20029;-77
2020/12/14 06:54:43;;;;;;;2.25;1.30;;;6.10;99.90;;;;;;5044422;28;20039;-76
2020/12/14 06:57:10;;;;;;;4.38;1.65;;;6.10;99.90;;;;;;5042907;28;20446;-75
2020/12/14 06:59:36;;;;;;;2.00;1.38;;;6.10;99.90;;;;;;5044519;28;20021;-76
2020/12/14 07:02:07;;;;;;;3.67;1.77;;;6.10;99.90;;;;;;5044419;28;20021;-74
2020/12/14 07:04:33;;;;;;;2.85;1.80;;;6.10;99.90;;;;;;5044442;28;20056;-73
2020/12/14 07:07:04;;;;;;;4.32;1.85;;;6.20;99.90;;;;;;5044465;28;20026;-74
2020/12/14 07:09:38;;;;;;;2.72;1.70;;;6.20;99.90;;;;;;5044461;28;20032;-74
2020/12/14 07:12:10;;;;;;;3.45;2.03;;;6.20;99.90;;;;;;5044615;28;20032;-75
2020/12/14 07:14:52;;;;;;;2.05;1.20;;;6.20;99.90;;;;;;5044104;28;20034;-76
2020/12/14 07:17:28;;;;;;;2.80;1.90;;;6.20;99.90;;;;;;5042772;28;20093;-75
2020/12/14 07:20:03;;;;;;;4.20;1.95;;;6.20;99.90;;;;;;5044127;28;20025;-75
2020/12/14 07:23:00;;;;;;;2.50;1.48;;;6.20;99.90;;;;;;5042160;28;20022;-75
2020/12/14 07:25:26;;;;;;;3.97;1.33;;;6.30;99.90;;;;;;5040939;28;20038;-75
2020/12/14 07:27:51;;;;;;;2.42;1.55;;;6.20;99.90;;;;;;5043046;28;20029;-75
2020/12/14 07:30:20;;;;;;;1.58;1.10;;;6.30;99.90;;;;;;5043363;28;20025;-75
2020/12/14 07:32:49;;;;;;;6.80;2.53;;;6.20;99.90;;;;;;5043675;28;20026;-74
2020/12/14 07:35:14;;;;;;;4.10;2.33;;;6.20;99.90;;;;;;5043221;28;20030;-76
2020/12/14 07:37:40;;;;;;;9.80;2.30;;;6.20;99.90;;;;;;5042542;28;20021;-75
2020/12/14 07:40:07;;;;;;;5.20;1.63;;;6.20;99.90;;;;;;5047317;28;20022;-75
2020/12/14 07:42:35;;;;;;;2.00;1.40;;;6.20;99.90;;;;;;5047578;28;20083;-76
2020/12/14 07:45:20;;;;;;;6.82;2.25;;;6.20;99.90;;;;;;5046088;28;20026;-75
2020/12/14 07:47:48;;;;;;;11.23;2.35;;;6.30;99.90;;;;;;5046598;28;20080;-76
2020/12/14 07:50:18;;;;;;;5.07;2.58;;;6.30;99.90;;;;;;5045893;28;20026;-73
2020/12/14 07:52:46;;;;;;;2.15;1.80;;;6.30;99.90;;;;;;5046831;28;20017;-75
2020/12/14 07:55:13;;;;;;;2.55;1.52;;;6.30;99.90;;;;;;5047205;28;20029;-75
2020/12/14 07:57:41;;;;;;;8.15;1.73;;;6.40;99.90;;;;;;5047002;28;20024;-76
2020/12/14 08:00:12;;;;;;;3.67;1.85;;;6.40;99.90;;;;;;5047197;28;20025;-76
2020/12/14 08:02:39;;;;;;;3.38;1.70;;;6.50;99.90;;;;;;5047247;28;20488;-76
2020/12/14 08:05:07;;;;;;;3.47;1.55;;;6.50;99.90;;;;;;5045460;28;20049;-76
2020/12/14 08:07:45;;;;;;;4.15;1.67;;;6.50;99.90;;;;;;5047026;28;20036;-78
2020/12/14 08:10:12;;;;;;;5.68;1.83;;;6.60;99.90;;;;;;5045673;28;20036;-76
2020/12/14 08:12:40;;;;;;;5.82;2.22;;;6.60;99.90;;;;;;5046926;28;20017;-76
2020/12/14 08:15:25;;;;;;;4.90;1.80;;;6.60;99.90;;;;;;5045824;28;20132;-75
2020/12/14 08:17:51;;;;;;;3.55;2.05;;;6.60;99.90;;;;;;5047033;28;20025;-75
2020/12/14 08:20:30;;;;;;;5.97;2.05;;;6.60;99.90;;;;;;5046797;28;20022;-75
2020/12/14 08:22:57;;;;;;;4.13;1.73;;;6.50;99.90;;;;;;5045776;28;20029;-74
2020/12/14 08:25:26;;;;;;;7.78;1.48;;;6.50;99.90;;;;;;5046281;28;20053;-78
2020/12/14 08:28:01;;;;;;;3.55;1.70;;;6.50;99.90;;;;;;5045282;28;20017;-75
2020/12/14 08:30:27;;;;;;;3.40;2.05;;;6.50;99.90;;;;;;5045931;28;20030;-72
2020/12/14 08:33:05;;;;;;;2.22;1.40;;;6.40;99.90;;;;;;5053745;28;20054;-74
2020/12/14 08:35:31;;;;;;;9.77;2.75;;;6.40;99.90;;;;;;5046521;28;20037;-76
2020/12/14 08:38:06;;;;;;;4.22;2.20;;;6.40;99.90;;;;;;5045516;28;20025;-76
2020/12/14 08:40:32;;;;;;;6.60;2.33;;;6.40;99.90;;;;;;5046390;28;20057;-74
2020/12/14 08:43:07;;;;;;;6.15;3.08;;;6.30;99.90;;;;;;5045437;28;20071;-76
2020/12/14 08:45:33;;;;;;;4.07;2.45;;;6.30;99.90;;;;;;5046620;28;20033;-76
2020/12/14 08:48:00;;;;;;;3.50;2.33;;;6.40;99.90;;;;;;5046298;28;20134;-76
2020/12/14 08:50:26;;;;;;;8.80;1.65;;;6.40;99.90;;;;;;5045216;28;20780;-75
2020/12/14 08:53:02;;;;;;;3.40;1.88;;;6.30;99.90;;;;;;5046027;28;20018;-74
2020/12/14 08:55:38;;;;;;;5.55;2.30;;;6.30;99.90;;;;;;5046111;28;20091;-75
2020/12/14 08:58:04;;;;;;;3.08;1.73;;;6.30;99.90;;;;;;5046270;28;20029;-74
2020/12/14 09:00:29;;;;;;;3.30;2.17;;;6.30;99.90;;;;;;5044922;28;20026;-76
2020/12/14 09:03:02;;;;;;;8.65;2.35;;;6.40;99.90;;;;;;5045916;28;20039;-74
2020/12/14 09:05:35;;;;;;;7.50;2.55;;;6.30;99.90;;;;;;5058063;28;20045;-77
2020/12/14 09:08:12;;;;;;;2.28;1.83;;;6.30;99.90;;;;;;5064712;28;20071;-76
2020/12/14 09:10:38;;;;;;;2.97;1.55;;;6.20;99.90;;;;;;5065532;28;20039;-77
2020/12/14 09:13:05;;;;;;;6.40;1.63;;;6.30;99.90;;;;;;5065855;28;20021;-75
2020/12/14 09:15:31;;;;;;;2.50;1.65;;;6.30;99.90;;;;;;5064387;28;20052;-78
2020/12/14 09:18:04;;;;;;;4.47;2.03;;;6.30;99.90;;;;;;5065522;28;20021;-76
2020/12/14 09:20:30;;;;;;;4.63;2.00;;;6.30;99.90;;;;;;5064194;28;20032;-76
2020/12/14 09:22:56;;;;;;;2.65;1.58;;;6.30;99.90;;;;;;5065533;28;20961;-76
2020/12/14 09:25:22;;;;;;;5.20;2.92;;;6.30;99.90;;;;;;5065242;28;20020;-76
2020/12/14 09:27:47;;;;;;;3.47;1.83;;;6.40;99.90;;;;;;5063679;28;20036;-76
2020/12/14 09:30:13;;;;;;;2.75;1.58;;;6.30;99.90;;;;;;5065221;28;20024;-77
2020/12/14 09:32:39;;;;;;;3.28;1.83;;;6.30;99.90;;;;;;5063955;28;20021;-78
2020/12/14 09:35:05;;;;;;;3.78;1.83;;;6.40;99.90;;;;;;5064048;28;20037;-75
2020/12/14 09:37:31;;;;;;;2.42;1.73;;;6.40;99.90;;;;;;5063747;28;20366;-76
2020/12/14 09:39:58;;;;;;;2.65;1.45;;;6.40;99.90;;;;;;5065156;28;20070;-75
2020/12/14 09:42:23;;;;;;;5.65;2.72;;;6.40;99.90;;;;;;5064067;28;20078;-75
2020/12/14 09:44:49;;;;;;;2.72;2.10;;;6.40;99.90;;;;;;5063585;28;20486;-75
2020/12/14 09:47:15;;;;;;;5.55;2.33;;;6.40;99.90;;;;;;5062754;28;20021;-78
2020/12/14 09:49:40;;;;;;;6.10;2.65;;;6.40;99.90;;;;;;5060536;28;20044;-77
2020/12/14 09:52:06;;;;;;;2.75;1.55;;;6.40;99.90;;;;;;5063185;28;20040;-74
2020/12/14 09:54:32;;;;;;;3.83;2.45;;;6.50;99.90;;;;;;5062550;28;20044;-76
2020/12/14 09:56:57;;;;;;;3.63;2.03;;;6.50;99.90;;;;;;5063502;28;20045;-76
2020/12/14 09:59:23;;;;;;;4.38;1.55;;;6.50;99.90;;;;;;5062328;28;20044;-77
2020/12/14 10:01:48;;;;;;;7.80;3.00;;;6.50;99.90;;;;;;5063309;28;20029;-75
2020/12/14 10:04:14;;;;;;;4.43;2.80;;;6.50;99.90;;;;;;5062998;28;20048;-77
2020/12/14 10:06:40;;;;;;;3.45;2.08;;;6.60;99.90;;;;;;5064450;28;20345;-77
2020/12/14 10:09:05;;;;;;;12.15;2.38;;;6.60;99.90;;;;;;5061827;28;20357;-76
2020/12/14 10:11:33;;;;;;;5.82;2.55;;;6.50;99.90;;;;;;5062730;28;20104;-74
2020/12/14 10:13:59;;;;;;;4.53;2.42;;;6.60;99.90;;;;;;5064357;28;20032;-75
2020/12/14 10:16:25;;;;;;;4.60;2.17;;;6.60;99.90;;;;;;5063569;28;20021;-76
2020/12/14 10:18:51;;;;;;;5.05;2.20;;;6.60;99.90;;;;;;5064142;28;20021;-75
2020/12/14 10:21:17;;;;;;;12.70;2.55;;;6.60;99.90;;;;;;5062525;28;20037;-74
2020/12/14 10:23:43;;;;;;;8.13;2.47;;;6.60;99.90;;;;;;5063528;28;20100;-77
2020/12/14 10:26:11;;;;;;;6.38;2.42;;;6.60;99.90;;;;;;5064246;28;20047;-76
2020/12/14 10:28:37;;;;;;;4.43;1.98;;;6.70;99.90;;;;;;5063905;28;20021;-77
2020/12/14 10:31:07;;;;;;;4.00;2.45;;;6.70;99.90;;;;;;5063586;28;20108;-75
2020/12/14 10:33:33;;;;;;;4.57;2.22;;;6.70;99.90;;;;;;5061612;28;20040;-75
2020/12/14 10:36:05;;;;;;;3.67;2.25;;;6.80;99.90;;;;;;5062958;28;20036;-76
2020/12/14 10:38:31;;;;;;;4.28;1.88;;;6.70;99.90;;;;;;5061728;28;20032;-74
2020/12/14 10:40:56;;;;;;;3.60;1.83;;;6.80;99.90;;;;;;5061455;28;20472;-76
2020/12/14 10:43:22;;;;;;;5.07;2.03;;;6.80;99.90;;;;;;5061683;28;20044;-76
2020/12/14 10:45:47;;;;;;;8.13;2.17;;;6.90;99.90;;;;;;5062943;28;20119;-75
2020/12/14 10:48:13;;;;;;;7.90;2.95;;;6.90;99.90;;;;;;5062091;28;20043;-76
2020/12/14 10:50:39;;;;;;;8.60;3.03;;;7.00;99.90;;;;;;5063198;28;20021;-75
2020/12/14 10:53:06;;;;;;;3.80;2.33;;;7.00;99.90;;;;;;5061497;28;20043;-76
2020/12/14 10:55:32;;;;;;;7.45;2.15;;;7.10;99.90;;;;;;5061198;28;20022;-76
2020/12/14 10:57:57;;;;;;;10.98;2.03;;;7.10;99.90;;;;;;5062984;28;20079;-76
2020/12/14 11:00:23;;;;;;;2.78;1.70;;;7.10;99.90;;;;;;5062912;28;20121;-77
2020/12/14 11:02:49;;;;;;;13.68;2.10;;;7.00;99.90;;;;;;5063447;28;20017;-75
2020/12/14 11:05:15;;;;;;;2.88;1.88;;;7.10;99.90;;;;;;5061740;28;20049;-75
2020/12/14 11:07:41;;;;;;;3.25;1.92;;;7.10;99.90;;;;;;5063093;28;20017;-76
2020/12/14 11:10:08;;;;;;;6.22;2.85;;;7.10;99.90;;;;;;5063470;28;20021;-76
2020/12/14 11:12:34;;;;;;;6.05;2.53;;;7.10;99.90;;;;;;5062542;28;20120;-74
2020/12/14 11:14:59;;;;;;;2.05;1.70;;;7.10;99.90;;;;;;5066362;28;20033;-77
2020/12/14 11:17:25;;;;;;;3.20;1.98;;;7.10;99.90;;;;;;5065401;28;20112;-75
2020/12/14 11:19:51;;;;;;;8.73;2.63;;;7.20;99.90;;;;;;5067011;28;20021;-75
2020/12/14 11:22:17;;;;;;;6.50;2.60;;;7.10;99.90;;;;;;5065512;28;20024;-76
2020/12/14 11:24:42;;;;;;;4.20;2.45;;;7.10;99.90;;;;;;5065482;28;20021;-77
2020/12/14 11:27:08;;;;;;;4.50;2.13;;;7.10;99.90;;;;;;5065916;28;20025;-75
2020/12/14 11:29:34;;;;;;;6.18;2.70;;;7.30;99.90;;;;;;5066597;28;20434;-74
2020/12/14 11:31:59;;;;;;;5.38;2.53;;;7.20;99.90;;;;;;5066472;28;20017;-76
2020/12/14 11:34:25;;;;;;;10.38;1.85;;;7.20;99.90;;;;;;5064729;28;20037;-75
2020/12/14 11:36:51;;;;;;;4.03;2.63;;;7.20;99.90;;;;;;5066268;28;20450;-74
2020/12/14 11:39:17;;;;;;;4.28;2.63;;;7.30;99.90;;;;;;5064263;28;20017;-74
2020/12/14 11:41:47;;;;;;;4.47;2.30;;;7.30;99.90;;;;;;5066273;28;20024;-76
2020/12/14 11:44:13;;;;;;;4.15;2.28;;;7.30;99.90;;;;;;5065029;28;20031;-75
2020/12/14 11:46:38;;;;;;;3.78;2.03;;;7.40;99.90;;;;;;5064937;28;20025;-74
2020/12/14 11:49:04;;;;;;;4.05;1.88;;;7.40;99.90;;;;;;5066276;28;20150;-75
2020/12/14 11:51:30;;;;;;;9.10;2.35;;;7.40;99.90;;;;;;5065962;28;20720;-74
2020/12/14 11:53:55;;;;;;;2.45;1.85;;;7.50;99.90;;;;;;5065783;28;20033;-75
2020/12/14 11:56:21;;;;;;;3.63;1.90;;;7.50;99.90;;;;;;5065072;28;20029;-77
2020/12/14 11:58:46;;;;;;;6.22;2.17;;;7.60;99.90;;;;;;5065501;28;20031;-75
2020/12/14 12:01:12;;;;;;;3.83;2.13;;;7.60;99.90;;;;;;5073402;28;20035;-77
2020/12/14 12:03:38;;;;;;;3.90;2.60;;;7.70;99.90;;;;;;5066197;28;20123;-75
2020/12/14 12:06:04;;;;;;;2.85;1.70;;;7.70;99.90;;;;;;5066923;28;20021;-74
2020/12/14 12:08:30;;;;;;;4.57;2.88;;;7.70;99.90;;;;;;5065607;28;20109;-76
2020/12/14 12:10:55;;;;;;;4.60;2.53;;;7.80;99.90;;;;;;5064571;28;20033;-74
2020/12/14 12:13:21;;;;;;;3.38;1.65;;;7.80;99.90;;;;;;5061582;28;20013;-78
2020/12/14 12:15:46;;;;;;;2.78;1.58;;;7.80;99.90;;;;;;5065889;28;20151;-77
2020/12/14 12:18:12;;;;;;;2.50;1.75;;;7.90;99.90;;;;;;5065878;28;20017;-76
2020/12/14 12:20:38;;;;;;;3.33;1.58;;;8.00;99.90;;;;;;5067391;28;20028;-76
2020/12/14 12:23:04;;;;;;;5.85;2.58;;;8.00;99.90;;;;;;5065889;28;20084;-75
2020/12/14 12:25:30;;;;;;;4.82;2.15;;;8.10;99.90;;;;;;5064238;28;20575;-75
2020/12/14 12:27:55;;;;;;;4.45;2.63;;;8.10;99.90;;;;;;5066008;28;20734;-76
2020/12/14 12:30:21;;;;;;;4.70;2.65;;;8.10;99.90;;;;;;5066516;28;20036;-76
2020/12/14 12:32:47;;;;;;;2.80;1.85;;;8.20;99.90;;;;;;5064970;28;20084;-75
2020/12/14 12:35:13;;;;;;;2.67;2.13;;;8.20;99.90;;;;;;5064990;28;20123;-77
2020/12/14 12:37:39;;;;;;;3.05;1.80;;;8.20;99.90;;;;;;5066012;28;20060;-75
2020/12/14 12:40:07;;;;;;;5.25;2.33;;;8.20;99.90;;;;;;5064916;28;20028;-75
2020/12/14 12:42:34;;;;;;;4.75;2.15;;;8.30;99.90;;;;;;5065702;28;20024;-74
2020/12/14 12:45:00;;;;;;;3.53;2.58;;;8.40;99.90;;;;;;5063508;28;20028;-75
2020/12/14 12:47:26;;;;;;;4.88;2.20;;;8.30;99.90;;;;;;5062776;28;20024;-77
2020/12/14 12:49:51;;;;;;;4.00;1.70;;;8.30;99.90;;;;;;5063314;28;20083;-74
2020/12/14 12:52:17;;;;;;;3.50;2.17;;;8.30;99.90;;;;;;5065129;28;20132;-76
2020/12/14 12:54:42;;;;;;;7.25;2.75;;;8.40;99.90;;;;;;5064680;28;20091;-75
2020/12/14 12:57:08;;;;;;;6.95;2.00;;;8.40;99.90;;;;;;5065409;28;20537;-75
2020/12/14 12:59:34;;;;;;;10.07;2.25;;;8.40;99.90;;;;;;5064837;28;20037;-75